Time;durP1;ratioP1;P1;durP2;ratioP2;P2;SDS_P1;SDS_P2;PMS_P1;PMS_P2;Temp;Humidity;BMP_temperature;BMP_pressure;BME280_temperature;BME280_humidity;BME280_pressure;Samples;Min_cycle;Max_cycle;Signal;HPM_P1;HPM_P2
2023/08/25 00:01:14;;;;;;;3.00;2.70;;;23.50;99.90;;;;;;5013204;28;20418;-69
2023/08/25 00:03:39;;;;;;;4.17;2.77;;;23.60;99.90;;;;;;5013704;28;20890;-70
2023/08/25 00:06:05;;;;;;;3.70;2.97;;;23.50;99.90;;;;;;5013320;28;20164;-70
2023/08/25 00:08:30;;;;;;;5.27;3.17;;;23.50;99.90;;;;;;5011654;28;20250;-70
2023/08/25 00:10:56;;;;;;;4.70;2.33;;;23.40;99.90;;;;;;5013296;28;20226;-70
2023/08/25 00:13:21;;;;;;;2.57;2.37;;;23.30;99.90;;;;;;5013672;28;20536;-70
2023/08/25 00:15:49;;;;;;;3.57;3.10;;;23.40;99.90;;;;;;5012956;28;20179;-68
2023/08/25 00:18:15;;;;;;;5.60;2.87;;;23.20;99.90;;;;;;5013212;28;20196;-71
2023/08/25 00:20:41;;;;;;;4.57;3.03;;;23.40;99.90;;;;;;5013593;28;21005;-71
2023/08/25 00:23:07;;;;;;;3.17;2.70;;;23.40;99.90;;;;;;5013413;28;20231;-70
2023/08/25 00:25:33;;;;;;;5.17;3.20;;;23.20;99.90;;;;;;5012794;28;20411;-70
2023/08/25 00:27:59;;;;;;;3.20;2.60;;;23.40;99.90;;;;;;5011591;28;20454;-70
2023/08/25 00:30:25;;;;;;;3.50;3.20;;;23.50;99.90;;;;;;5012763;28;20387;-70
2023/08/25 00:32:51;;;;;;;4.20;3.43;;;23.60;99.90;;;;;;5012902;28;20916;-70
2023/08/25 00:35:17;;;;;;;3.13;2.57;;;23.40;99.90;;;;;;5013187;28;20175;-70
2023/08/25 00:37:42;;;;;;;3.33;2.87;;;23.20;99.90;;;;;;5013283;28;20231;-71
2023/08/25 00:40:08;;;;;;;6.13;3.33;;;23.30;99.90;;;;;;5012965;28;20516;-70
2023/08/25 00:42:34;;;;;;;3.27;2.70;;;23.30;99.90;;;;;;5013123;28;20172;-70
2023/08/25 00:44:59;;;;;;;2.93;2.70;;;23.40;99.90;;;;;;5012945;28;20437;-70
2023/08/25 00:47:25;;;;;;;2.97;2.67;;;23.20;99.90;;;;;;5013388;28;20164;-69
2023/08/25 00:49:52;;;;;;;2.57;2.37;;;23.30;99.90;;;;;;5013393;28;20188;-70
2023/08/25 00:52:19;;;;;;;3.00;2.70;;;23.40;99.90;;;;;;5013000;28;20160;-70
2023/08/25 00:54:46;;;;;;;3.97;2.80;;;23.50;99.90;;;;;;5012997;28;20846;-70
2023/08/25 00:57:11;;;;;;;3.80;3.00;;;23.50;99.90;;;;;;5013191;28;20406;-70
2023/08/25 00:59:37;;;;;;;6.73;3.60;;;23.50;99.90;;;;;;5012820;28;20427;-69
2023/08/25 01:02:03;;;;;;;3.30;2.63;;;23.40;99.90;;;;;;5013306;28;20160;-70
2023/08/25 01:04:29;;;;;;;6.50;2.93;;;23.30;99.90;;;;;;5013216;28;20192;-70
2023/08/25 01:06:54;;;;;;;3.33;2.57;;;23.30;99.90;;;;;;5013757;28;20168;-69
2023/08/25 01:09:21;;;;;;;3.90;2.87;;;23.20;99.90;;;;;;5012660;28;20659;-70
2023/08/25 01:12:09;;;;;;;3.40;2.90;;;23.10;99.90;;;;;;5021540;28;20179;-70
2023/08/25 01:15:02;;;;;;;2.97;2.77;;;23.10;99.90;;;;;;5024237;28;20991;-70
2023/08/25 01:17:33;;;;;;;3.70;3.40;;;23.00;99.90;;;;;;5024012;28;20418;-70
2023/08/25 01:20:06;;;;;;;2.50;2.30;;;23.10;99.90;;;;;;5023227;28;20395;-70
2023/08/25 01:22:59;;;;;;;4.20;2.60;;;23.10;99.90;;;;;;5023198;28;20414;-70
2023/08/25 01:25:29;;;;;;;3.93;2.80;;;23.10;99.90;;;;;;5025677;28;20778;-70
2023/08/25 01:27:56;;;;;;;4.23;3.40;;;23.10;99.90;;;;;;5024596;28;20454;-70
2023/08/25 01:30:30;;;;;;;4.00;3.17;;;23.10;99.90;;;;;;5025430;28;20395;-70
2023/08/25 01:32:55;;;;;;;3.13;2.83;;;23.00;99.90;;;;;;5027094;28;20428;-70
2023/08/25 01:35:49;;;;;;;3.90;2.70;;;23.00;99.90;;;;;;5026134;28;20407;-70
2023/08/25 01:38:28;;;;;;;3.87;3.07;;;23.10;99.90;;;;;;5016174;28;20227;-69
2023/08/25 01:41:04;;;;;;;4.90;2.90;;;23.10;99.90;;;;;;5015797;28;20918;-69
2023/08/25 01:43:34;;;;;;;6.03;3.03;;;23.10;99.90;;;;;;5015781;28;20426;-69
2023/08/25 01:46:00;;;;;;;3.83;2.80;;;23.10;99.90;;;;;;5015605;28;20442;-70
2023/08/25 01:48:28;;;;;;;4.73;3.10;;;23.10;99.90;;;;;;5014433;28;21006;-69
2023/08/25 01:50:54;;;;;;;5.30;4.20;;;23.00;99.90;;;;;;5015862;28;20456;-70
2023/08/25 01:53:20;;;;;;;2.73;2.53;;;23.20;99.90;;;;;;5015599;28;20494;-70
2023/08/25 01:55:46;;;;;;;3.13;2.83;;;23.10;99.90;;;;;;5015542;28;20523;-70
2023/08/25 01:58:13;;;;;;;5.93;2.90;;;22.90;99.90;;;;;;5015822;28;20513;-70
2023/08/25 02:00:39;;;;;;;4.80;2.77;;;23.00;99.90;;;;;;5015482;28;20175;-69
2023/08/25 02:03:04;;;;;;;3.90;2.97;;;23.00;99.90;;;;;;5015644;28;20854;-70
2023/08/25 02:05:30;;;;;;;5.73;3.30;;;23.10;99.90;;;;;;5016120;28;20254;-70
2023/08/25 02:07:55;;;;;;;3.83;3.07;;;23.10;99.90;;;;;;5015772;28;20220;-70
2023/08/25 02:10:21;;;;;;;3.47;3.13;;;23.00;99.90;;;;;;5015236;28;20175;-69
2023/08/25 02:12:47;;;;;;;5.00;3.23;;;23.00;99.90;;;;;;5015712;28;20242;-69
2023/08/25 02:15:12;;;;;;;5.40;2.50;;;23.00;99.90;;;;;;5015037;28;20191;-70
2023/08/25 02:17:40;;;;;;;3.27;2.87;;;23.00;99.90;;;;;;5015234;28;20510;-70
2023/08/25 02:20:07;;;;;;;2.93;2.50;;;22.90;99.90;;;;;;5015269;28;20540;-70
2023/08/25 02:22:33;;;;;;;3.60;3.30;;;22.90;99.90;;;;;;5015430;28;20411;-69
2023/08/25 02:24:58;;;;;;;6.53;2.87;;;22.90;99.90;;;;;;5014667;28;20481;-70
2023/08/25 02:27:24;;;;;;;4.00;2.60;;;23.00;99.90;;;;;;5014838;28;20271;-70
2023/08/25 02:29:49;;;;;;;3.37;2.70;;;22.90;99.90;;;;;;5051327;23;20222;-70
2023/08/25 02:32:15;;;;;;;4.23;3.10;;;22.80;99.90;;;;;;5033412;28;20183;-68
2023/08/25 02:34:40;;;;;;;3.07;2.73;;;22.70;99.90;;;;;;5033040;28;20168;-68
2023/08/25 02:37:06;;;;;;;3.20;2.90;;;22.90;99.90;;;;;;5032885;28;20201;-70
2023/08/25 02:39:31;;;;;;;3.00;2.70;;;22.90;99.90;;;;;;5018683;28;20685;-69
2023/08/25 02:41:57;;;;;;;3.07;2.57;;;23.00;99.90;;;;;;5012968;28;20283;-69
2023/08/25 02:44:22;;;;;;;2.73;2.53;;;23.00;99.90;;;;;;5013023;28;20211;-69
2023/08/25 02:46:48;;;;;;;3.17;2.50;;;23.00;99.90;;;;;;5012549;28;20164;-69
2023/08/25 02:49:14;;;;;;;3.30;3.00;;;23.10;99.90;;;;;;5012901;28;20184;-68
2023/08/25 02:51:39;;;;;;;3.27;2.97;;;23.10;99.90;;;;;;5013371;28;20168;-70
2023/08/25 02:54:05;;;;;;;2.73;2.53;;;23.00;99.90;;;;;;5012996;28;20176;-70
2023/08/25 02:56:30;;;;;;;4.47;2.63;;;23.10;99.90;;;;;;5012988;28;20170;-69
2023/08/25 02:58:56;;;;;;;3.20;2.80;;;23.10;99.90;;;;;;5012521;28;20196;-69
2023/08/25 03:01:21;;;;;;;4.37;3.00;;;23.20;99.90;;;;;;5012152;28;20168;-69
2023/08/25 03:03:47;;;;;;;6.80;3.20;;;23.30;99.90;;;;;;5012543;28;20246;-70
2023/08/25 03:06:13;;;;;;;5.97;2.97;;;23.30;99.90;;;;;;5012518;28;20203;-70
2023/08/25 03:08:39;;;;;;;2.63;2.43;;;23.30;99.90;;;;;;5011292;28;20473;-69
2023/08/25 03:11:04;;;;;;;3.60;3.17;;;23.30;99.90;;;;;;5012490;28;20631;-69
2023/08/25 03:13:31;;;;;;;3.13;2.70;;;23.20;99.90;;;;;;5012355;28;20171;-69
2023/08/25 03:15:59;;;;;;;3.30;2.83;;;23.10;99.90;;;;;;5012162;28;20172;-69
2023/08/25 03:18:25;;;;;;;4.83;3.10;;;23.30;99.90;;;;;;5012193;28;20441;-68
2023/08/25 03:20:54;;;;;;;4.13;3.20;;;23.20;99.90;;;;;;5012281;28;20878;-69
2023/08/25 03:23:20;;;;;;;3.20;2.90;;;23.00;99.90;;;;;;5012217;28;20272;-70
2023/08/25 03:25:45;;;;;;;4.40;2.90;;;23.10;99.90;;;;;;5011715;28;20521;-70
2023/08/25 03:28:11;;;;;;;2.80;2.60;;;23.20;99.90;;;;;;5011823;28;20407;-68
2023/08/25 03:30:37;;;;;;;3.23;2.93;;;23.20;99.90;;;;;;5011754;28;20168;-69
2023/08/25 03:33:06;;;;;;;2.90;2.70;;;23.20;99.90;;;;;;5012187;28;20258;-68
2023/08/25 03:35:38;;;;;;;6.33;3.37;;;23.30;99.90;;;;;;5011762;28;20259;-69
2023/08/25 03:38:05;;;;;;;3.50;3.07;;;23.30;99.90;;;;;;5011709;28;20423;-69
2023/08/25 03:40:30;;;;;;;6.37;2.90;;;23.30;99.90;;;;;;5011450;28;20935;-68
2023/08/25 03:42:56;;;;;;;4.70;2.70;;;23.10;99.90;;;;;;5012012;28;20529;-69
2023/08/25 03:45:22;;;;;;;4.13;3.70;;;23.00;99.90;;;;;;5011014;28;20588;-69
2023/08/25 03:47:47;;;;;;;4.10;2.83;;;22.90;99.90;;;;;;5011769;28;20323;-69
2023/08/25 03:50:13;;;;;;;3.50;3.20;;;23.00;99.90;;;;;;5010205;28;20242;-70
2023/08/25 03:52:38;;;;;;;4.07;3.50;;;23.10;99.90;;;;;;5011690;28;20582;-69
2023/08/25 03:55:05;;;;;;;3.30;3.00;;;23.10;99.90;;;;;;5011312;28;20593;-69
2023/08/25 03:57:30;;;;;;;6.57;2.90;;;23.00;99.90;;;;;;5011802;28;20222;-69
2023/08/25 03:59:56;;;;;;;3.93;3.10;;;23.10;99.90;;;;;;5011452;28;20949;-70
2023/08/25 04:02:21;;;;;;;5.53;3.13;;;22.90;99.90;;;;;;5011855;28;20168;-69
2023/08/25 04:04:47;;;;;;;4.33;3.63;;;22.90;99.90;;;;;;5011624;28;20192;-69
2023/08/25 04:07:15;;;;;;;3.60;3.00;;;22.90;99.90;;;;;;5011697;28;20168;-68
2023/08/25 04:09:41;;;;;;;5.53;2.70;;;22.70;99.90;;;;;;5011238;28;20211;-69
2023/08/25 04:12:07;;;;;;;3.53;3.23;;;22.50;99.90;;;;;;5011424;28;20411;-70
2023/08/25 04:14:34;;;;;;;6.00;3.40;;;22.40;99.90;;;;;;5011834;28;20175;-70
2023/08/25 04:16:59;;;;;;;4.23;2.87;;;22.40;99.90;;;;;;5009781;28;20943;-69
2023/08/25 04:19:25;;;;;;;5.10;3.20;;;22.40;99.90;;;;;;5011212;28;20434;-70
2023/08/25 04:21:50;;;;;;;4.80;3.40;;;22.50;99.90;;;;;;5011422;28;20665;-69
2023/08/25 04:24:19;;;;;;;7.00;3.90;;;22.50;99.90;;;;;;5011430;28;20262;-68
2023/08/25 04:26:45;;;;;;;8.00;3.83;;;22.50;99.90;;;;;;5011462;28;20218;-69
2023/08/25 04:29:11;;;;;;;4.63;3.70;;;22.40;99.90;;;;;;5011445;28;20487;-69
2023/08/25 04:31:37;;;;;;;4.10;3.00;;;22.50;99.90;;;;;;5011430;28;20160;-69
2023/08/25 04:34:05;;;;;;;6.13;3.23;;;22.50;99.90;;;;;;5011631;28;20207;-69
2023/08/25 04:36:32;;;;;;;5.97;3.10;;;22.50;99.90;;;;;;5011031;28;20454;-69
2023/08/25 04:38:57;;;;;;;3.83;3.20;;;22.40;99.90;;;;;;5011926;28;20811;-70
2023/08/25 04:41:23;;;;;;;6.30;2.90;;;22.30;99.90;;;;;;5011512;28;20490;-69
2023/08/25 04:43:49;;;;;;;4.47;3.10;;;22.40;99.90;;;;;;5011174;28;20310;-69
2023/08/25 04:46:14;;;;;;;3.40;3.10;;;22.30;99.90;;;;;;5011073;28;20167;-69
2023/08/25 04:48:45;;;;;;;4.57;3.70;;;22.40;99.90;;;;;;5011514;28;20223;-68
2023/08/25 04:51:11;;;;;;;3.63;3.00;;;22.30;99.90;;;;;;5011634;28;20157;-68
2023/08/25 04:53:37;;;;;;;3.67;3.10;;;22.40;99.90;;;;;;5011313;28;20742;-70
2023/08/25 04:56:02;;;;;;;7.37;4.10;;;22.40;99.90;;;;;;5010832;28;20578;-68
2023/08/25 04:58:28;;;;;;;3.23;2.93;;;22.40;99.90;;;;;;5013110;28;20277;-69
2023/08/25 05:00:54;;;;;;;5.93;3.17;;;22.50;99.90;;;;;;5014982;28;20184;-69
2023/08/25 05:03:19;;;;;;;6.37;4.07;;;22.70;99.90;;;;;;5015193;28;20210;-69
2023/08/25 05:05:45;;;;;;;5.10;3.20;;;22.90;99.90;;;;;;5015446;28;20545;-69
2023/08/25 05:08:10;;;;;;;4.90;3.20;;;23.00;99.90;;;;;;5015251;28;20342;-69
2023/08/25 05:10:36;;;;;;;4.43;3.03;;;23.10;99.90;;;;;;5014992;28;20584;-69
2023/08/25 05:13:03;;;;;;;4.03;3.03;;;23.20;99.90;;;;;;5015252;28;20538;-69
2023/08/25 05:15:29;;;;;;;4.33;3.80;;;23.20;99.90;;;;;;5014658;28;20415;-69
2023/08/25 05:17:54;;;;;;;3.87;3.47;;;23.10;99.90;;;;;;5015433;28;20494;-69
2023/08/25 05:20:20;;;;;;;5.70;3.43;;;23.20;99.90;;;;;;5015023;28;20226;-70
2023/08/25 05:22:46;;;;;;;6.10;3.63;;;23.30;99.90;;;;;;5014796;28;20210;-70
2023/08/25 05:25:12;;;;;;;3.67;2.77;;;23.20;99.90;;;;;;5013663;28;20928;-70
2023/08/25 05:27:38;;;;;;;4.90;3.40;;;23.10;99.90;;;;;;5014988;28;20399;-69
2023/08/25 05:30:04;;;;;;;6.50;3.20;;;23.30;99.90;;;;;;5014690;28;20238;-69
2023/08/25 05:32:30;;;;;;;10.37;3.67;;;23.30;99.90;;;;;;5014336;28;20172;-69
2023/08/25 05:34:55;;;;;;;5.83;3.43;;;23.50;99.90;;;;;;5014406;28;20825;-69
2023/08/25 05:37:21;;;;;;;4.40;3.30;;;23.70;99.90;;;;;;5014823;28;20160;-71
2023/08/25 05:39:47;;;;;;;5.27;3.63;;;23.70;99.90;;;;;;5014482;28;20643;-69
2023/08/25 05:42:12;;;;;;;5.43;3.77;;;23.90;99.90;;;;;;5015532;28;20172;-69
2023/08/25 05:44:38;;;;;;;3.47;3.00;;;24.00;99.90;;;;;;5014662;28;20682;-70
2023/08/25 05:47:03;;;;;;;4.10;2.90;;;24.20;99.90;;;;;;5014529;28;20179;-69
2023/08/25 05:49:29;;;;;;;4.80;3.20;;;24.30;99.90;;;;;;5014610;28;20184;-69
2023/08/25 05:51:54;;;;;;;7.10;3.20;;;24.40;99.90;;;;;;5015078;28;20299;-69
2023/08/25 05:54:20;;;;;;;5.87;3.53;;;24.40;99.90;;;;;;5014414;28;20175;-69
2023/08/25 05:56:46;;;;;;;7.73;3.20;;;24.10;99.90;;;;;;5014778;28;20234;-68
2023/08/25 05:59:11;;;;;;;4.07;3.73;;;24.00;99.90;;;;;;5014360;28;20648;-69
2023/08/25 06:01:37;;;;;;;3.83;2.60;;;24.10;99.90;;;;;;5014275;28;20199;-70
2023/08/25 06:04:03;;;;;;;4.60;3.70;;;24.20;99.90;;;;;;5014538;28;20283;-70
2023/08/25 06:06:30;;;;;;;3.13;2.80;;;24.40;99.90;;;;;;5014469;28;20246;-68
2023/08/25 06:08:56;;;;;;;3.77;3.03;;;24.50;99.90;;;;;;5013730;28;20601;-69
2023/08/25 06:11:22;;;;;;;10.00;3.63;;;24.60;99.90;;;;;;5013718;28;20906;-68
2023/08/25 06:13:48;;;;;;;4.60;3.57;;;24.60;99.90;;;;;;5013891;28;20418;-69
2023/08/25 06:16:14;;;;;;;7.20;3.80;;;24.40;99.90;;;;;;5013236;28;20411;-70
2023/08/25 06:18:40;;;;;;;6.23;4.07;;;23.90;99.90;;;;;;5013274;28;20543;-69
2023/08/25 06:21:06;;;;;;;4.93;3.50;;;23.60;99.90;;;;;;5013316;28;20512;-69
2023/08/25 06:23:31;;;;;;;3.73;3.33;;;23.40;99.90;;;;;;5014522;28;20743;-72
2023/08/25 06:25:59;;;;;;;5.60;3.60;;;23.40;99.90;;;;;;5013103;28;20259;-73
2023/08/25 06:28:24;;;;;;;4.47;3.80;;;23.40;99.90;;;;;;5012838;28;20215;-72
2023/08/25 06:30:53;;;;;;;6.80;4.57;;;23.20;99.90;;;;;;5013039;28;20762;-73
2023/08/25 06:33:18;;;;;;;7.90;3.70;;;23.10;99.90;;;;;;5013535;28;20543;-72
2023/08/25 06:35:44;;;;;;;5.10;3.80;;;23.10;99.90;;;;;;5013331;28;20407;-72
2023/08/25 06:38:10;;;;;;;5.37;3.60;;;23.00;99.90;;;;;;5013215;28;20169;-72
2023/08/25 06:40:35;;;;;;;6.17;4.13;;;23.10;99.90;;;;;;5013003;28;20207;-72
2023/08/25 06:43:02;;;;;;;6.57;3.67;;;23.10;99.90;;;;;;5013292;28;20204;-73
2023/08/25 06:45:28;;;;;;;4.50;4.10;;;23.10;99.90;;;;;;5013023;28;20172;-71
2023/08/25 06:47:56;;;;;;;10.10;4.27;;;23.00;99.90;;;;;;5012801;28;20419;-73
2023/08/25 06:50:22;;;;;;;5.10;4.00;;;23.00;99.90;;;;;;5012761;28;20423;-72
2023/08/25 06:52:47;;;;;;;3.90;3.60;;;22.90;99.90;;;;;;5012983;28;20406;-72
2023/08/25 06:55:16;;;;;;;5.90;4.63;;;22.90;99.90;;;;;;5011618;28;20168;-70
2023/08/25 06:57:42;;;;;;;4.90;4.40;;;22.90;99.90;;;;;;5012568;28;20201;-73
2023/08/25 07:00:09;;;;;;;7.10;4.60;;;23.00;99.90;;;;;;5012439;28;20423;-72
2023/08/25 07:02:36;;;;;;;4.50;4.07;;;22.90;99.90;;;;;;5012651;28;20180;-73
2023/08/25 07:05:02;;;;;;;4.53;3.80;;;22.70;99.90;;;;;;5013318;28;20914;-72
2023/08/25 07:07:27;;;;;;;5.43;4.43;;;22.60;99.90;;;;;;5012831;28;20482;-73
2023/08/25 07:09:53;;;;;;;7.20;4.43;;;22.70;99.90;;;;;;5012513;28;20234;-73
2023/08/25 07:12:19;;;;;;;4.17;3.77;;;22.60;99.90;;;;;;5012891;28;20515;-72
2023/08/25 07:14:45;;;;;;;6.63;3.83;;;22.50;99.90;;;;;;5013108;28;20410;-72
2023/08/25 07:17:10;;;;;;;5.83;3.80;;;22.60;99.90;;;;;;5012727;28;20265;-72
2023/08/25 07:19:36;;;;;;;4.70;4.27;;;22.70;99.90;;;;;;5012877;28;20223;-73
2023/08/25 07:22:02;;;;;;;5.87;4.00;;;22.80;99.90;;;;;;5012225;28;20176;-73
2023/08/25 07:24:28;;;;;;;4.23;3.50;;;23.00;99.90;;;;;;5012533;28;20647;-71
2023/08/25 07:26:53;;;;;;;4.40;3.57;;;23.10;99.90;;;;;;5012966;28;20406;-73
2023/08/25 07:29:20;;;;;;;4.67;3.60;;;23.10;99.90;;;;;;5012155;28;20306;-73
2023/08/25 07:31:46;;;;;;;4.30;3.63;;;23.00;99.90;;;;;;5012594;28;20796;-73
2023/08/25 07:34:11;;;;;;;5.10;4.53;;;23.00;99.90;;;;;;5012588;28;20180;-73
2023/08/25 07:36:38;;;;;;;4.07;3.60;;;23.00;99.90;;;;;;5012209;28;20597;-73
2023/08/25 07:39:03;;;;;;;6.20;3.73;;;22.90;99.90;;;;;;5012151;28;20192;-73
2023/08/25 07:41:29;;;;;;;4.80;4.37;;;22.80;99.90;;;;;;5012291;28;20415;-73
2023/08/25 07:43:56;;;;;;;3.50;3.20;;;22.40;99.90;;;;;;5011928;28;20188;-72
2023/08/25 07:46:21;;;;;;;5.47;3.93;;;22.20;99.90;;;;;;5012215;28;20509;-72
2023/08/25 07:48:47;;;;;;;5.07;3.40;;;22.20;99.90;;;;;;5011146;28;20519;-73
2023/08/25 07:51:12;;;;;;;4.37;3.97;;;22.20;99.90;;;;;;5012040;28;20233;-73
2023/08/25 07:53:38;;;;;;;3.50;3.20;;;22.20;99.90;;;;;;5012078;28;20172;-71
2023/08/25 07:56:04;;;;;;;5.03;4.07;;;22.30;99.90;;;;;;5011607;28;20183;-72
2023/08/25 07:58:29;;;;;;;5.80;4.50;;;22.40;99.90;;;;;;5011768;28;20195;-73
2023/08/25 08:00:55;;;;;;;5.90;4.43;;;22.40;99.90;;;;;;5011580;28;20202;-72
2023/08/25 08:03:20;;;;;;;4.97;3.90;;;22.20;99.90;;;;;;5011702;28;20259;-72
2023/08/25 08:05:46;;;;;;;4.13;3.30;;;22.10;99.90;;;;;;5011812;28;20179;-72
2023/08/25 08:08:11;;;;;;;5.23;3.43;;;22.20;99.90;;;;;;5011854;28;20523;-72
2023/08/25 08:10:38;;;;;;;4.57;4.17;;;22.20;99.90;;;;;;5011665;28;20571;-74
2023/08/25 08:13:04;;;;;;;5.20;3.90;;;22.20;99.90;;;;;;5012336;28;20172;-72
2023/08/25 08:15:32;;;;;;;6.90;3.77;;;22.30;99.90;;;;;;5011916;28;20502;-72
2023/08/25 08:17:58;;;;;;;7.13;3.90;;;22.30;99.90;;;;;;5011595;28;20422;-72
2023/08/25 08:20:25;;;;;;;4.30;3.90;;;22.30;99.90;;;;;;5011864;28;20443;-73
2023/08/25 08:22:51;;;;;;;6.07;3.53;;;22.20;99.90;;;;;;5011733;28;20204;-72
2023/08/25 08:25:16;;;;;;;6.20;3.80;;;22.00;99.90;;;;;;5011450;28;20545;-72
2023/08/25 08:27:43;;;;;;;6.80;3.80;;;22.00;99.90;;;;;;5010720;28;20836;-72
2023/08/25 08:30:09;;;;;;;4.70;3.53;;;21.90;99.90;;;;;;5041208;23;20701;-70
2023/08/25 08:32:36;;;;;;;5.10;4.00;;;21.80;99.90;;;;;;5034903;28;20402;-69
2023/08/25 08:35:08;;;;;;;4.57;4.10;;;21.80;99.90;;;;;;5036888;28;20390;-70
2023/08/25 08:37:35;;;;;;;4.67;4.10;;;21.80;99.90;;;;;;5036665;28;20477;-70
2023/08/25 08:40:01;;;;;;;5.17;4.30;;;21.80;99.90;;;;;;5036902;28;20422;-69
2023/08/25 08:42:28;;;;;;;6.27;4.17;;;21.90;99.90;;;;;;5036468;28;20405;-70
2023/08/25 08:44:56;;;;;;;4.73;4.20;;;22.00;99.90;;;;;;5036781;28;20450;-70
2023/08/25 08:47:22;;;;;;;5.63;3.23;;;21.90;99.90;;;;;;5036554;28;20776;-70
2023/08/25 08:49:49;;;;;;;5.37;4.37;;;22.00;99.90;;;;;;5036607;28;20440;-69
2023/08/25 08:52:16;;;;;;;6.23;3.57;;;22.00;99.90;;;;;;5036915;28;20658;-70
2023/08/25 08:54:43;;;;;;;5.17;4.00;;;22.00;99.90;;;;;;5035749;28;20528;-69
2023/08/25 08:57:09;;;;;;;5.00;4.10;;;22.10;99.90;;;;;;5035741;28;20424;-69
2023/08/25 08:59:35;;;;;;;3.93;3.53;;;22.30;99.90;;;;;;5036052;28;20509;-69
2023/08/25 09:02:03;;;;;;;4.63;3.80;;;22.30;99.90;;;;;;5036075;28;20198;-70
2023/08/25 09:04:29;;;;;;;4.50;3.50;;;22.40;99.90;;;;;;5036230;28;20282;-70
2023/08/25 09:06:57;;;;;;;5.37;3.60;;;22.50;99.90;;;;;;5034859;28;20418;-70
2023/08/25 09:09:23;;;;;;;4.30;3.77;;;22.50;99.90;;;;;;5035983;28;20488;-70
2023/08/25 09:11:49;;;;;;;6.77;4.63;;;22.60;99.90;;;;;;5036118;28;20774;-71
2023/08/25 09:14:26;;;;;;;3.70;3.37;;;22.50;99.90;;;;;;5036423;28;20414;-69
2023/08/25 09:17:06;;;;;;;5.50;4.37;;;22.50;99.90;;;;;;5035966;28;20460;-69
2023/08/25 09:19:32;;;;;;;7.20;3.97;;;22.50;99.90;;;;;;5036115;28;20429;-70
2023/08/25 09:21:59;;;;;;;4.43;4.03;;;22.40;99.90;;;;;;5036135;28;20397;-69
2023/08/25 09:24:25;;;;;;;7.80;4.33;;;22.20;99.90;;;;;;5035650;28;20446;-70
2023/08/25 09:26:51;;;;;;;6.63;4.30;;;22.20;99.90;;;;;;5035662;28;20978;-69
2023/08/25 09:29:17;;;;;;;5.97;4.50;;;22.10;99.90;;;;;;5035683;28;20195;-69
2023/08/25 09:31:44;;;;;;;4.93;4.33;;;22.10;99.90;;;;;;5036076;28;20774;-70
2023/08/25 09:34:15;;;;;;;7.20;4.10;;;22.20;99.90;;;;;;5037330;28;20406;-70
2023/08/25 09:36:53;;;;;;;5.07;4.47;;;22.40;99.90;;;;;;5037983;28;20408;-70
2023/08/25 09:39:20;;;;;;;4.83;3.53;;;22.60;99.90;;;;;;5037114;28;20433;-70
2023/08/25 09:41:47;;;;;;;6.93;3.87;;;22.60;99.90;;;;;;5036397;28;20410;-69
2023/08/25 09:44:13;;;;;;;4.43;3.40;;;22.70;99.90;;;;;;5034845;28;20796;-69
2023/08/25 09:46:39;;;;;;;3.63;3.33;;;22.90;99.90;;;;;;5035519;28;20402;-69
2023/08/25 09:49:06;;;;;;;4.27;3.90;;;23.00;99.90;;;;;;5035619;28;20967;-70
2023/08/25 09:51:41;;;;;;;3.87;3.47;;;23.00;99.90;;;;;;5035449;28;20654;-70
2023/08/25 09:54:10;;;;;;;4.37;3.37;;;23.10;99.90;;;;;;5035418;28;20441;-70
2023/08/25 09:56:37;;;;;;;5.73;3.90;;;23.20;99.90;;;;;;5035209;28;20414;-70
2023/08/25 09:59:03;;;;;;;4.13;3.80;;;23.30;99.90;;;;;;5034954;28;20563;-70
2023/08/25 10:01:36;;;;;;;4.50;3.97;;;23.50;99.90;;;;;;5034587;28;20922;-70
2023/08/25 10:04:03;;;;;;;3.87;3.50;;;23.60;99.90;;;;;;5035048;28;20516;-70
2023/08/25 10:06:31;;;;;;;3.60;3.23;;;23.80;99.90;;;;;;5033695;28;20418;-70
2023/08/25 10:08:57;;;;;;;4.43;4.03;;;23.90;99.90;;;;;;5035427;28;20430;-70
2023/08/25 10:11:28;;;;;;;6.50;4.10;;;23.90;99.90;;;;;;5035606;28;20461;-70
2023/08/25 10:13:56;;;;;;;5.40;3.93;;;23.60;99.90;;;;;;5035182;28;20489;-70
2023/08/25 10:16:25;;;;;;;4.47;3.57;;;23.70;99.90;;;;;;5034939;28;20414;-69
2023/08/25 10:18:58;;;;;;;6.90;4.00;;;23.90;99.90;;;;;;5035131;28;20517;-70
2023/08/25 10:21:25;;;;;;;4.07;3.63;;;24.20;99.90;;;;;;5034806;28;20897;-70
2023/08/25 10:23:53;;;;;;;4.77;3.83;;;24.20;99.90;;;;;;5035847;28;20445;-69
2023/08/25 10:26:19;;;;;;;3.77;3.37;;;24.50;99.90;;;;;;5034723;28;20402;-69
2023/08/25 10:28:45;;;;;;;3.60;2.97;;;24.50;99.90;;;;;;5034222;28;20853;-70
2023/08/25 10:31:12;;;;;;;3.97;3.57;;;24.20;99.90;;;;;;5034449;28;20398;-70
2023/08/25 10:33:48;;;;;;;4.97;4.00;;;24.10;99.90;;;;;;5034659;28;20413;-69
2023/08/25 10:36:18;;;;;;;4.40;3.63;;;23.90;99.90;;;;;;5034518;28;20912;-69
2023/08/25 10:38:54;;;;;;;3.70;3.40;;;23.80;99.90;;;;;;5033270;28;20873;-69
2023/08/25 10:41:20;;;;;;;3.53;3.23;;;23.70;99.90;;;;;;5034591;28;20425;-70
2023/08/25 10:43:55;;;;;;;3.63;3.30;;;23.80;99.90;;;;;;5034439;28;21017;-70
2023/08/25 10:46:22;;;;;;;4.00;3.60;;;23.80;99.90;;;;;;5034672;28;20770;-69
2023/08/25 10:49:01;;;;;;;3.53;3.23;;;23.70;99.90;;;;;;5034582;28;20924;-69
2023/08/25 10:51:27;;;;;;;4.30;3.80;;;23.70;99.90;;;;;;5034314;28;20390;-70
2023/08/25 10:53:54;;;;;;;4.00;3.70;;;23.80;99.90;;;;;;5032507;28;20444;-70
2023/08/25 10:56:21;;;;;;;4.40;3.30;;;23.90;99.90;;;;;;5033674;28;20650;-70
2023/08/25 10:59:04;;;;;;;3.90;3.60;;;23.90;99.90;;;;;;5034030;28;20445;-70
2023/08/25 11:01:36;;;;;;;5.07;3.43;;;23.90;99.90;;;;;;5034007;28;20398;-70
2023/08/25 11:04:13;;;;;;;3.73;2.87;;;24.20;99.90;;;;;;5033996;28;20987;-70
2023/08/25 11:06:46;;;;;;;3.60;3.30;;;24.40;99.90;;;;;;5034311;28;20773;-70
2023/08/25 11:09:30;;;;;;;3.80;3.10;;;24.70;99.90;;;;;;5034110;28;20429;-70
2023/08/25 11:12:03;;;;;;;4.00;3.20;;;25.00;99.90;;;;;;5014531;28;20398;-70
2023/08/25 11:14:29;;;;;;;3.70;3.40;;;25.30;99.90;;;;;;5014253;28;20395;-70
2023/08/25 11:17:00;;;;;;;3.40;3.10;;;25.20;99.90;;;;;;5014276;28;20482;-70
2023/08/25 11:19:26;;;;;;;4.23;3.40;;;25.20;99.90;;;;;;5014265;28;20955;-70
2023/08/25 11:22:05;;;;;;;3.93;3.30;;;24.90;99.90;;;;;;5033308;28;20776;-70
2023/08/25 11:24:32;;;;;;;4.00;3.67;;;24.80;99.90;;;;;;5033483;28;20441;-70
2023/08/25 11:27:09;;;;;;;4.30;3.90;;;25.00;99.90;;;;;;5033165;28;20418;-70
2023/08/25 11:29:34;;;;;;;5.40;3.80;;;25.10;99.90;;;;;;5033092;28;20510;-69
2023/08/25 11:32:01;;;;;;;4.77;3.67;;;25.20;99.90;;;;;;5033207;28;20402;-69
2023/08/25 11:34:31;;;;;;;3.50;3.30;;;25.60;99.90;;;;;;5033206;28;20539;-70
2023/08/25 11:36:57;;;;;;;3.50;3.20;;;25.80;99.90;;;;;;5033665;28;20422;-70
2023/08/25 11:39:23;;;;;;;4.10;3.80;;;26.00;99.90;;;;;;5032165;28;20835;-70
2023/08/25 11:41:53;;;;;;;5.20;3.90;;;26.00;99.90;;;;;;5031971;28;20422;-70
2023/08/25 11:44:18;;;;;;;5.23;4.10;;;25.70;99.90;;;;;;5032946;28;20269;-70
2023/08/25 11:46:44;;;;;;;4.30;4.00;;;25.70;99.90;;;;;;5033139;28;20465;-70
2023/08/25 11:49:10;;;;;;;3.90;3.50;;;25.40;99.90;;;;;;5033451;28;20187;-69
2023/08/25 11:51:36;;;;;;;5.90;4.37;;;25.30;99.90;;;;;;5033572;28;20456;-70
2023/08/25 11:54:04;;;;;;;4.57;3.90;;;25.30;99.90;;;;;;5033268;28;20248;-69
2023/08/25 11:56:30;;;;;;;4.50;4.10;;;25.30;99.90;;;;;;5033271;28;20183;-70
2023/08/25 11:58:56;;;;;;;4.40;4.00;;;25.40;99.90;;;;;;5032815;28;20430;-69
2023/08/25 12:01:21;;;;;;;4.20;3.90;;;25.70;99.90;;;;;;5032813;28;20704;-70
2023/08/25 12:03:47;;;;;;;4.87;4.47;;;26.00;99.90;;;;;;5032695;28;20194;-69
2023/08/25 12:06:13;;;;;;;4.60;3.83;;;26.40;99.90;;;;;;5032699;28;20281;-69
2023/08/25 12:08:40;;;;;;;4.67;4.27;;;26.80;99.90;;;;;;5032818;28;20274;-69
2023/08/25 12:11:08;;;;;;;4.57;4.17;;;27.30;99.90;;;;;;5031519;28;20433;-70
2023/08/25 12:13:35;;;;;;;4.13;3.43;;;27.10;99.90;;;;;;5032880;28;20410;-70
2023/08/25 12:16:03;;;;;;;7.10;4.40;;;26.80;99.90;;;;;;5033079;28;20446;-70
2023/08/25 12:18:51;;;;;;;4.20;3.90;;;26.70;99.90;;;;;;5032436;28;20409;-69
2023/08/25 12:21:17;;;;;;;4.63;4.23;;;26.40;99.90;;;;;;5033162;28;20399;-70
2023/08/25 12:23:43;;;;;;;5.40;4.90;;;26.00;99.90;;;;;;5032733;28;20962;-69
2023/08/25 12:26:11;;;;;;;4.10;3.80;;;26.00;99.90;;;;;;5032863;28;20413;-69
2023/08/25 12:28:38;;;;;;;5.30;4.40;;;26.00;99.90;;;;;;5032438;28;20405;-70
2023/08/25 12:31:04;;;;;;;4.87;4.47;;;25.90;99.90;;;;;;5032791;28;20402;-69
2023/08/25 12:33:29;;;;;;;5.27;4.77;;;25.90;99.90;;;;;;5032435;28;20452;-69
2023/08/25 12:35:55;;;;;;;4.80;4.00;;;25.90;99.90;;;;;;5032323;28;20169;-68
2023/08/25 12:38:21;;;;;;;5.27;4.50;;;25.80;99.90;;;;;;5032535;28;20175;-69
2023/08/25 12:40:46;;;;;;;5.67;4.00;;;25.80;99.90;;;;;;5032936;28;20183;-69
2023/08/25 12:43:13;;;;;;;5.40;4.13;;;25.80;99.90;;;;;;5032455;28;20285;-70
2023/08/25 12:45:39;;;;;;;4.83;4.43;;;25.90;99.90;;;;;;5032867;28;20701;-70